Terminal Aerodrome Forecast
Issued by NWS Shreveport, LA

Home | Current Version | Previous Version | Text Only | Print | Product List | Glossary On
Versions: 1 2 3 4 5 6 7 8 9 10 11 12 13
000
FTUS44 KSHV 210500
TAFELD
TAF
KELD 210524Z 2106/2206 00000KT P6SM SKC
     FM210900 00000KT P6SM SCT040
      TEMPO 2110/2113 5SM BR
     FM211400 04004KT P6SM SCT040
     FM212100 VRB04KT P6SM SKC=

USA.gov is the U.S. government's official web portal to all federal, state and local government web resources and services.